Fremont, NE

1:04 PM CDT on August 29, 2015 (GMT -0500)
Barnard Park | | Change Station
CLOSE
Current Station
Personal Weather Station
Location: Fremont, NE
Elevation: 1204 ft
Nearby Weather Stations

Elev 1204 ft 41.43 °N, 96.49 °W | Updated 12 minutes ago

Overcast
Overcast
67.8 °F
Feels Like 67.8 °F
N
0.0
Wind Variable Wind from East

Today
High -- | Low -- °F
--% Chance of Precip.
Yesterday
High -- | Low -- °F
Precip. -- in
6:48 AM 8:04 PM
Full, 100% visible
Pressure 30.10 in
Visibility 10.0 miles
Clouds Overcast 900 ft
Dew Point 58 °F
Humidity 72%
Rainfall 0.00 in
Snow Depth Not available.
UV 3 out of 12
Pollen 9.40 out of 12
Air Quality Not available.
Flu Activity Not available.
METAR KFET 291755Z AUTO 35003KT 10SM OVC009 19/16 A3010 RMK AO2 T01880157 10188 20162
Pressure 30.10 in
Visibility 10.0 miles
Clouds Overcast 900 ft
Dew Point 58 °F
Humidity 72%
Rainfall 0.00 in
Snow Depth Not available.
UV 3 out of 12
Pollen 9.40 out of 12
Air Quality Not available.
Flu Activity Not available.
METAR KFET 291755Z AUTO 35003KT 10SM OVC009 19/16 A3010 RMK AO2 T01880157 10188 20162

10-Day Weather Forecast

×

Almanac

Astronomy

Aug. 29, 2015 Rise Set
Actual Time
Civil Twilight
Nautical Twilight
Astronomical Twilight
Moon
Length of Visible Light
Length of Day
Tomorrow will be .
, % of the Moon is Illuminated

Today's Extremes

State Highs State Lows

Community

WunderPhotos

Upload Photos

1,850,750 photos uploaded!

WunderBlogs® & News

Nearby

Air Quality

  Air Quality AQ Index Pollutant
Not available.

Snow Depth

Station Depth Elevation

Earthquake Activity

City Distance Mag. Time & Date
Minimum magnitude displayed is 2.5.

Coastal Water Temperatures

Place Temperature

Stations

Nearby Weather Stations

Station Location Temp. Windchill Dew Point Humidity Wind Precip. Elev Updated Type